Decoded Metar for KSUZ ( in ) (IATA:) | Meteo·Mobile Aviation Weather
aviador You're here:

KSUZ Decoded Metar

in
Report Time2019-10-18 13:35:00
UTC Time2019-10-18 13:59:52
Flight Rules vfr VFR
WindCalm
Visibility9999 m
Phenomena:N/A
Clouds:N/A
Expected CloudBase > 400 ft AGL from Temp-Dew spread
CeilingNone
Temp10°C
Dew Point09°C (94% RH)
AAT9.8°C
QNH1016 hPa
Raw Report
KSUZ 181335Z AUTO 00000KT 10SM CLR 10/09 A3001 RMK A01=

Extra information for KSUZ:More info

Social comments